KPTN/PTN METAR and TAF weather

Enter ICAO airport designator
Station Type Date Time Source
KPTN METAR 2021/07/29 18:56 UTC NOAA

KPTN 291856Z AUTO 07004KT 10SM FEW039 33/26 A3003 RMK AO2 SLP168 T03330261 $


Station Type Date Time Source
KPTN Decoded METAR 2021/07/29 18:56 UTC NOAA

Patterson Memorial, LA, United States (KPTN) 29-43N 091-20W
Jul 29, 2021 - 02:56 PM EDT / 2021.07.29 1856 UTC
Wind: from the ENE (070 degrees) at 5 MPH (4 KT):0
Visibility: 10 mile(s):0
Sky conditions: mostly clear
Temperature: 91.9 F (33.3 C)
Heat index: 108.7 F (42.6 C):1
Dew Point: 79.0 F (26.1 C)
Relative Humidity: 66%
Pressure (altimeter): 30.03 in. Hg (1016 hPa)
ob: KPTN 291856Z AUTO 07004KT 10SM FEW039 33/26 A3003 RMK AO2 SLP168 T03330261
cycle: 19

Station Type Date Time Source
KPTN TAF UTC NOAA

Error!

Example: see airport list